createdAt,value
2022-08-20T00:01:05.429Z,60.39
2022-08-20T00:03:44.859Z,60.24
2022-08-20T00:06:23.017Z,61.16
2022-08-20T00:08:50.080Z,61.12
2022-08-20T00:11:21.196Z,60.63
2022-08-20T00:13:52.231Z,60.86
2022-08-20T00:16:21.230Z,61.03
2022-08-20T00:18:48.181Z,61.65
2022-08-20T00:21:19.308Z,61.61
2022-08-20T00:23:48.499Z,61.60
2022-08-20T00:26:15.986Z,62.49
2022-08-20T00:28:42.712Z,61.96
2022-08-20T00:31:13.140Z,62.78
2022-08-20T00:33:40.260Z,62.43
2022-08-20T00:36:10.268Z,62.62
2022-08-20T00:38:38.460Z,62.76
2022-08-20T00:41:06.387Z,63.30
2022-08-20T00:43:35.507Z,63.82
2022-08-20T00:46:06.752Z,62.86
2022-08-20T00:48:36.557Z,64.08
2022-08-20T00:51:18.213Z,64.20
2022-08-20T00:53:45.347Z,64.46
2022-08-20T00:56:12.963Z,64.96
2022-08-20T00:58:42.289Z,64.23
2022-08-20T01:01:09.689Z,64.76
2022-08-20T01:03:36.464Z,64.42
2022-08-20T01:06:03.499Z,64.23
2022-08-20T01:08:30.042Z,65.37
2022-08-20T01:11:15.148Z,65.28
2022-08-20T01:13:42.310Z,65.17
2022-08-20T01:16:31.430Z,65.94
2022-08-20T01:19:01.096Z,65.79
2022-08-20T01:21:28.461Z,65.46
2022-08-20T01:24:13.779Z,66.10
2022-08-20T01:26:44.403Z,65.51
2022-08-20T01:29:16.006Z,66.42
2022-08-20T01:31:43.154Z,66.05
2022-08-20T01:34:19.660Z,66.69
2022-08-20T01:36:51.029Z,66.40
2022-08-20T01:39:24.851Z,66.70
2022-08-20T01:42:00.769Z,66.46
2022-08-20T01:44:28.036Z,66.72
2022-08-20T01:46:58.607Z,67.60
2022-08-20T01:49:30.854Z,67.90
2022-08-20T01:52:00.879Z,67.49
2022-08-20T01:54:28.332Z,67.30
2022-08-20T01:56:58.690Z,67.35
2022-08-20T01:59:25.481Z,67.55
2022-08-20T02:01:52.610Z,67.64
2022-08-20T02:04:19.766Z,67.81
2022-08-20T02:06:57.299Z,68.72
2022-08-20T02:09:35.045Z,69.06
2022-08-20T02:12:03.419Z,68.55
2022-08-20T02:14:30.332Z,69.15
2022-08-20T02:16:58.490Z,68.95
2022-08-20T02:19:33.258Z,69.03
2022-08-20T02:22:03.371Z,68.79
2022-08-20T02:24:30.073Z,69.56
2022-08-20T02:26:56.811Z,69.61
2022-08-20T02:29:23.908Z,69.40
2022-08-20T02:32:24.872Z,69.90
2022-08-20T02:34:37.004Z,69.38
2022-08-20T02:37:06.026Z,69.52
2022-08-20T02:39:33.366Z,70.24
2022-08-20T02:42:02.813Z,70.48
2022-08-20T02:44:30.137Z,70.59
2022-08-20T02:46:56.942Z,70.22
2022-08-20T02:49:23.443Z,70.28
2022-08-20T02:51:49.952Z,70.24
2022-08-20T02:54:17.269Z,70.79
2022-08-20T02:56:44.371Z,71.30
2022-08-20T02:59:10.949Z,70.98
2022-08-20T03:01:45.657Z,70.51
2022-08-20T03:04:12.178Z,71.19
2022-08-20T03:06:38.702Z,70.68
2022-08-20T03:09:06.137Z,70.91
2022-08-20T03:11:32.959Z,71.85
2022-08-20T03:14:00.688Z,71.46
2022-08-20T03:16:27.451Z,71.53
2022-08-20T03:18:55.297Z,71.81
2022-08-20T03:21:21.902Z,71.75
2022-08-20T03:23:48.452Z,71.80
2022-08-20T03:26:16.506Z,71.66
2022-08-20T03:28:43.776Z,71.64
2022-08-20T03:31:10.675Z,71.64
2022-08-20T03:33:39.585Z,71.56
2022-08-20T03:36:22.049Z,71.87
2022-08-20T03:38:55.408Z,72.33
2022-08-20T03:41:22.009Z,72.23
2022-08-20T03:43:48.521Z,72.10
2022-08-20T03:46:22.246Z,72.35
2022-08-20T03:48:56.713Z,72.16
2022-08-20T03:51:26.959Z,71.98
2022-08-20T03:53:53.550Z,72.43
2022-08-20T03:56:20.034Z,72.29
2022-08-20T03:58:46.650Z,72.57
2022-08-20T04:01:37.141Z,72.81
2022-08-20T04:04:00.757Z,72.18
2022-08-20T04:06:29.206Z,72.38
2022-08-20T04:08:56.959Z,72.79
2022-08-20T04:11:24.276Z,72.68
2022-08-20T04:13:51.095Z,72.60
2022-08-20T04:16:19.458Z,72.41
2022-08-20T04:18:58.625Z,73.01
2022-08-20T04:21:32.522Z,72.68
2022-08-20T04:24:00.608Z,72.58
2022-08-20T04:26:27.168Z,72.57
2022-08-20T04:28:55.907Z,72.92
2022-08-20T04:31:33.484Z,73.05
2022-08-20T04:34:01.951Z,73.11
2022-08-20T04:36:28.525Z,73.56
2022-08-20T04:38:55.361Z,73.60
2022-08-20T04:41:24.290Z,73.11
2022-08-20T04:43:54.525Z,73.33
2022-08-20T04:46:25.455Z,73.82
2022-08-20T04:48:52.169Z,73.85
2022-08-20T04:51:19.418Z,73.70
2022-08-20T04:53:52.209Z,73.85
2022-08-20T04:56:23.929Z,73.61
2022-08-20T04:58:52.428Z,74.00
2022-08-20T05:01:19.115Z,73.77
2022-08-20T05:03:47.814Z,73.92
2022-08-20T05:06:16.258Z,73.84
2022-08-20T05:08:44.103Z,73.97
2022-08-20T05:11:35.585Z,74.05
2022-08-20T05:13:58.250Z,74.04
2022-08-20T05:16:24.852Z,74.02
2022-08-20T05:18:52.609Z,73.98
2022-08-20T05:21:21.144Z,74.23
2022-08-20T05:23:49.307Z,74.41
2022-08-20T05:26:16.959Z,74.71
2022-08-20T05:28:54.146Z,74.29
2022-08-20T05:31:32.137Z,74.06
2022-08-20T05:34:12.541Z,74.34
2022-08-20T05:36:45.367Z,73.78
2022-08-20T05:39:14.487Z,74.08
2022-08-20T05:41:41.224Z,74.21
2022-08-20T05:44:13.321Z,74.39
2022-08-20T05:46:41.617Z,73.93
2022-08-20T05:49:16.239Z,74.67
2022-08-20T05:51:43.922Z,74.05
2022-08-20T05:54:10.966Z,73.57
2022-08-20T05:56:37.654Z,73.49
2022-08-20T05:59:07.046Z,73.69
2022-08-20T06:01:36.579Z,73.51
2022-08-20T06:04:22.746Z,74.18
2022-08-20T06:06:51.694Z,73.28
2022-08-20T06:09:30.720Z,73.72
2022-08-20T06:12:06.328Z,73.68
2022-08-20T06:14:33.854Z,73.24
2022-08-20T06:17:06.100Z,73.12
2022-08-20T06:19:33.966Z,74.28
2022-08-20T06:22:01.699Z,73.87
2022-08-20T06:24:28.297Z,73.79
2022-08-20T06:27:00.714Z,73.12
2022-08-20T06:29:28.895Z,73.16
2022-08-20T06:31:56.029Z,73.21
2022-08-20T06:34:28.236Z,72.87
2022-08-20T06:36:56.652Z,71.25
2022-08-20T06:39:23.985Z,71.51
2022-08-20T06:41:51.804Z,70.82
2022-08-20T06:44:19.699Z,70.75
2022-08-20T06:46:46.305Z,70.65
2022-08-20T06:49:13.231Z,69.71
2022-08-20T06:51:40.101Z,69.83
2022-08-20T06:54:08.571Z,69.67
2022-08-20T06:56:35.476Z,69.60
2022-08-20T06:59:02.116Z,68.94
2022-08-20T07:01:28.649Z,68.07
2022-08-20T07:03:56.213Z,67.58
2022-08-20T07:06:25.643Z,66.74
2022-08-20T07:08:53.644Z,66.46
2022-08-20T07:11:26.537Z,66.09
2022-08-20T07:13:56.658Z,66.28
2022-08-20T07:16:23.726Z,65.55
2022-08-20T07:18:50.288Z,65.90
2022-08-20T07:21:17.346Z,65.55
2022-08-20T07:23:43.877Z,65.94
2022-08-20T07:26:10.770Z,65.72
2022-08-20T07:28:37.261Z,64.94
2022-08-20T07:31:22.432Z,65.47
2022-08-20T07:33:50.509Z,65.32
2022-08-20T07:36:17.747Z,65.27
2022-08-20T07:38:48.401Z,64.69
2022-08-20T07:41:15.242Z,64.25
2022-08-20T07:43:45.481Z,63.26
2022-08-20T07:46:14.469Z,63.03
2022-08-20T07:48:46.647Z,63.02
2022-08-20T07:51:17.085Z,62.90
2022-08-20T07:53:44.783Z,61.58
2022-08-20T07:56:16.092Z,60.88
2022-08-20T07:58:50.106Z,60.67
2022-08-20T08:01:26.127Z,60.08
2022-08-20T08:03:53.186Z,60.15
2022-08-20T08:06:29.699Z,59.37
2022-08-20T08:09:07.026Z,59.09
2022-08-20T08:11:34.844Z,59.03
2022-08-20T08:14:02.491Z,57.65
2022-08-20T08:16:31.046Z,57.25
2022-08-20T08:18:58.460Z,56.79
2022-08-20T08:21:26.458Z,56.42
2022-08-20T08:23:53.484Z,55.89
2022-08-20T08:26:20.535Z,55.36
2022-08-20T08:28:47.078Z,54.79
2022-08-20T08:31:15.080Z,52.88
2022-08-20T08:33:42.150Z,52.99
2022-08-20T08:36:13.574Z,52.77
2022-08-20T08:38:42.938Z,51.78
2022-08-20T08:41:26.636Z,52.12
2022-08-20T08:43:59.698Z,51.09
2022-08-20T08:46:27.620Z,50.67
2022-08-20T08:48:57.717Z,49.93
2022-08-20T08:51:34.920Z,49.53
2022-08-20T08:54:06.628Z,48.97
2022-08-20T08:56:35.029Z,49.04
2022-08-20T08:59:08.598Z,48.12
2022-08-20T09:01:53.996Z,48.73
2022-08-20T09:04:23.770Z,48.96
2022-08-20T09:06:54.399Z,48.24
2022-08-20T09:09:31.558Z,48.63
2022-08-20T09:12:05.298Z,47.44
2022-08-20T09:14:32.475Z,47.10
2022-08-20T09:16:58.986Z,47.45
2022-08-20T09:19:25.516Z,47.23
2022-08-20T09:21:52.247Z,47.06
2022-08-20T09:24:18.757Z,46.31
2022-08-20T09:26:45.914Z,44.87
2022-08-20T09:29:12.624Z,44.14
2022-08-20T09:31:39.351Z,44.30
2022-08-20T09:34:06.277Z,44.38
2022-08-20T09:36:33.327Z,45.13
2022-08-20T09:39:00.757Z,44.77
2022-08-20T09:41:30.112Z,44.11
2022-08-20T09:43:56.723Z,43.12
2022-08-20T09:46:27.260Z,42.19
2022-08-20T09:48:54.357Z,41.38
2022-08-20T09:51:21.172Z,41.09
2022-08-20T09:53:49.066Z,41.18
2022-08-20T09:56:16.386Z,41.41
2022-08-20T09:58:51.074Z,41.48
2022-08-20T10:01:20.083Z,41.86
2022-08-20T10:03:48.869Z,41.68
2022-08-20T10:06:20.207Z,41.65
2022-08-20T10:08:47.896Z,41.99
2022-08-20T10:11:14.517Z,41.38
2022-08-20T10:13:41.055Z,41.72
2022-08-20T10:16:07.818Z,41.87
2022-08-20T10:18:35.746Z,41.57
2022-08-20T10:21:02.380Z,41.80
2022-08-20T10:23:29.539Z,41.42
2022-08-20T10:25:56.159Z,41.02
2022-08-20T10:28:22.868Z,40.26
2022-08-20T10:30:49.543Z,39.87
2022-08-20T10:33:16.203Z,38.92
2022-08-20T10:35:42.708Z,38.65
2022-08-20T10:38:09.254Z,38.24
2022-08-20T10:40:35.922Z,37.00
2022-08-20T10:43:03.204Z,36.30
2022-08-20T10:45:29.707Z,36.75
2022-08-20T10:47:59.609Z,36.21
2022-08-20T10:50:26.497Z,36.48
2022-08-20T10:52:57.068Z,34.82
2022-08-20T10:55:23.598Z,34.38
2022-08-20T10:57:50.217Z,33.66
2022-08-20T11:00:18.461Z,33.24
2022-08-20T11:02:45.051Z,33.85
2022-08-20T11:05:11.640Z,34.11
2022-08-20T11:07:55.736Z,34.72
2022-08-20T11:10:28.097Z,34.53
2022-08-20T11:12:55.338Z,34.94
2022-08-20T11:15:22.150Z,35.42
2022-08-20T11:17:48.741Z,36.30
2022-08-20T11:20:18.803Z,36.69
2022-08-20T11:22:45.469Z,35.54
2022-08-20T11:25:12.553Z,36.03
2022-08-20T11:27:45.438Z,36.88
2022-08-20T11:30:17.354Z,36.36
2022-08-20T11:32:44.380Z,35.49
2022-08-20T11:35:40.564Z,34.69
2022-08-20T11:37:59.237Z,33.67
2022-08-20T11:40:27.508Z,32.35
2022-08-20T11:43:13.582Z,32.68
2022-08-20T11:45:40.719Z,32.71
2022-08-20T11:48:07.312Z,32.93
2022-08-20T11:50:33.857Z,32.79
2022-08-20T11:53:01.127Z,33.34
2022-08-20T11:55:30.445Z,33.03
2022-08-20T11:58:00.260Z,31.98
2022-08-20T12:00:32.573Z,32.21
2022-08-20T12:03:00.774Z,32.10
2022-08-20T12:05:29.960Z,32.30
2022-08-20T12:08:00.118Z,32.49
2022-08-20T12:10:28.243Z,33.09
2022-08-20T12:12:56.109Z,33.51
2022-08-20T12:15:23.717Z,34.25
2022-08-20T12:17:50.294Z,33.44
2022-08-20T12:20:16.979Z,34.30
2022-08-20T12:22:44.782Z,35.26
2022-08-20T12:25:12.065Z,35.05
2022-08-20T12:27:39.673Z,34.44
2022-08-20T12:30:12.694Z,35.26
2022-08-20T12:32:39.449Z,35.28
2022-08-20T12:35:08.688Z,35.77
2022-08-20T12:37:35.712Z,35.22
2022-08-20T12:40:06.574Z,35.24
2022-08-20T12:42:33.245Z,35.06
2022-08-20T12:45:00.447Z,35.51
2022-08-20T12:47:30.659Z,35.59
2022-08-20T12:50:02.866Z,36.29
2022-08-20T12:52:33.037Z,36.02
2022-08-20T12:55:01.101Z,36.03
2022-08-20T12:57:33.430Z,35.79
2022-08-20T13:00:08.349Z,36.34
2022-08-20T13:02:35.084Z,35.91
2022-08-20T13:05:05.052Z,36.10
2022-08-20T13:07:32.653Z,35.81
2022-08-20T13:09:59.778Z,36.21
2022-08-20T13:12:26.586Z,35.89
2022-08-20T13:14:53.099Z,36.45
2022-08-20T13:17:22.697Z,35.37
2022-08-20T13:20:12.800Z,35.43
2022-08-20T13:22:41.125Z,35.20
2022-08-20T13:25:09.202Z,35.70
2022-08-20T13:27:38.501Z,35.62
2022-08-20T13:30:07.349Z,35.03
2022-08-20T13:32:34.385Z,35.80
2022-08-20T13:35:01.174Z,34.82
2022-08-20T13:37:29.341Z,33.74
2022-08-20T13:39:57.668Z,34.23
2022-08-20T13:42:24.408Z,33.57
2022-08-20T13:44:51.118Z,34.54
2022-08-20T13:47:34.166Z,34.59
2022-08-20T13:50:03.794Z,33.71
2022-08-20T13:52:31.254Z,33.95
2022-08-20T13:54:58.402Z,33.71
2022-08-20T13:57:26.569Z,34.26
2022-08-20T13:59:56.878Z,33.93
2022-08-20T14:02:24.694Z,34.23
2022-08-20T14:04:52.117Z,34.58
2022-08-20T14:07:32.558Z,34.68
2022-08-20T14:10:08.442Z,33.54
2022-08-20T14:12:35.429Z,33.98
2022-08-20T14:15:02.264Z,32.44
2022-08-20T14:17:30.208Z,32.02
2022-08-20T14:20:19.766Z,32.61
2022-08-20T14:22:46.401Z,31.47
2022-08-20T14:25:15.083Z,32.05
2022-08-20T14:27:42.131Z,31.75
2022-08-20T14:30:13.238Z,31.24
2022-08-20T14:32:39.919Z,30.77
2022-08-20T14:35:08.201Z,31.25
2022-08-20T14:37:40.889Z,31.25
2022-08-20T14:40:11.584Z,31.08
2022-08-20T14:42:39.317Z,31.33
2022-08-20T14:45:09.158Z,31.51
2022-08-20T14:47:42.292Z,32.44
2022-08-20T14:50:12.981Z,32.64
2022-08-20T14:52:41.292Z,32.65
2022-08-20T14:55:11.577Z,33.50
2022-08-20T14:57:39.273Z,33.73
2022-08-20T15:00:11.539Z,33.28
2022-08-20T15:02:38.825Z,33.27
2022-08-20T15:05:07.261Z,33.12
2022-08-20T15:07:38.038Z,33.09
2022-08-20T15:10:08.344Z,34.58
2022-08-20T15:12:35.316Z,34.65
2022-08-20T15:15:04.784Z,34.75
2022-08-20T15:17:45.435Z,34.40
2022-08-20T15:20:19.900Z,33.34
2022-08-20T15:22:48.204Z,33.27
2022-08-20T15:25:16.541Z,32.81
2022-08-20T15:27:43.593Z,32.79
2022-08-20T15:30:13.944Z,33.30
2022-08-20T15:32:40.550Z,32.55
2022-08-20T15:35:09.928Z,32.16
2022-08-20T15:37:40.954Z,32.06
2022-08-20T15:40:09.151Z,31.88
2022-08-20T15:42:36.110Z,31.73
2022-08-20T15:45:03.267Z,32.26
2022-08-20T15:47:34.027Z,31.85
2022-08-20T15:50:09.101Z,32.04
2022-08-20T15:52:43.076Z,31.98
2022-08-20T15:55:13.645Z,30.65
2022-08-20T15:58:10.413Z,30.59
2022-08-20T16:00:42.743Z,31.39
2022-08-20T16:03:30.291Z,31.78
2022-08-20T16:06:03.253Z,31.80
2022-08-20T16:08:47.521Z,31.78
2022-08-20T16:11:37.332Z,32.45
2022-08-20T16:14:16.091Z,31.22
2022-08-20T16:17:01.365Z,32.24
2022-08-20T16:19:36.476Z,32.36
2022-08-20T16:22:04.882Z,32.71
2022-08-20T16:24:32.448Z,32.62
2022-08-20T16:27:01.742Z,32.93
2022-08-20T16:29:48.541Z,32.91
2022-08-20T16:32:31.602Z,32.73
2022-08-20T16:35:30.681Z,32.91
2022-08-20T16:38:23.867Z,33.58
2022-08-20T16:41:02.276Z,34.48
2022-08-20T16:43:36.705Z,33.99
2022-08-20T16:46:11.442Z,34.71
2022-08-20T16:48:42.459Z,34.82
2022-08-20T16:51:16.141Z,34.75
2022-08-20T16:53:42.945Z,35.49
2022-08-20T16:56:09.694Z,35.86
2022-08-20T16:58:36.389Z,35.63
2022-08-20T17:01:10.433Z,35.68
2022-08-20T17:03:40.096Z,36.72
2022-08-20T17:06:31.498Z,36.85
2022-08-20T17:08:58.361Z,37.37
2022-08-20T17:11:31.929Z,37.33
2022-08-20T17:14:09.149Z,38.43
2022-08-20T17:16:48.257Z,38.81
2022-08-20T17:19:33.930Z,38.88
2022-08-20T17:22:12.577Z,39.84
2022-08-20T17:24:40.644Z,39.39
2022-08-20T17:27:13.397Z,40.09
2022-08-20T17:29:52.784Z,40.43
2022-08-20T17:32:25.970Z,40.76
2022-08-20T17:34:56.390Z,41.20
2022-08-20T17:37:24.254Z,40.94
2022-08-20T17:40:07.076Z,41.57
2022-08-20T17:42:47.144Z,42.17
2022-08-20T17:45:24.869Z,42.74
2022-08-20T17:47:53.686Z,42.89
2022-08-20T17:50:25.681Z,42.57
2022-08-20T17:52:56.828Z,42.99
2022-08-20T17:55:23.781Z,43.97
2022-08-20T17:57:56.827Z,44.29
2022-08-20T18:00:26.702Z,44.21
2022-08-20T18:02:58.728Z,44.13
2022-08-20T18:05:28.634Z,44.21
2022-08-20T18:08:26.327Z,44.65
2022-08-20T18:11:09.829Z,44.67
2022-08-20T18:13:48.356Z,45.05
2022-08-20T18:16:25.751Z,45.98
2022-08-20T18:19:19.126Z,45.94
2022-08-20T18:21:48.698Z,46.69
2022-08-20T18:24:23.713Z,46.39
2022-08-20T18:26:56.718Z,46.91
2022-08-20T18:29:29.212Z,47.13
2022-08-20T18:31:59.756Z,46.61
2022-08-20T18:34:28.989Z,47.56
2022-08-20T18:37:14.069Z,48.00
2022-08-20T18:39:44.824Z,47.48
2022-08-20T18:42:31.670Z,48.14
2022-08-20T18:44:58.206Z,48.69
2022-08-20T18:47:41.230Z,48.56
2022-08-20T18:50:16.729Z,48.50
2022-08-20T18:52:53.529Z,49.30
2022-08-20T18:56:06.918Z,49.35
2022-08-20T18:58:49.376Z,49.61
2022-08-20T19:01:16.306Z,49.68
2022-08-20T19:03:46.251Z,50.20
2022-08-20T19:06:15.909Z,50.66
2022-08-20T19:08:51.380Z,50.74
2022-08-20T19:11:47.358Z,51.09
2022-08-20T19:14:29.155Z,51.37
2022-08-20T19:17:05.022Z,51.96
2022-08-20T19:19:33.185Z,51.83
2022-08-20T19:22:02.239Z,51.45
2022-08-20T19:24:32.980Z,52.06
2022-08-20T19:27:06.751Z,52.62
2022-08-20T19:29:47.470Z,52.54
2022-08-20T19:32:23.619Z,53.01
2022-08-20T19:35:01.368Z,53.67
2022-08-20T19:37:39.645Z,53.84
2022-08-20T19:40:26.498Z,54.13
2022-08-20T19:42:56.563Z,54.34
2022-08-20T19:45:30.763Z,54.30
2022-08-20T19:48:03.372Z,54.73
2022-08-20T19:50:40.133Z,54.97
2022-08-20T19:53:16.047Z,54.91
2022-08-20T19:55:43.154Z,55.70
2022-08-20T19:58:18.845Z,56.04
2022-08-20T20:00:55.264Z,55.68
2022-08-20T20:03:32.170Z,56.25
2022-08-20T20:06:29.618Z,56.11
2022-08-20T20:08:59.181Z,56.67
2022-08-20T20:11:46.989Z,56.14
2022-08-20T20:14:16.457Z,56.52
2022-08-20T20:16:45.420Z,57.67
2022-08-20T20:19:26.496Z,57.39
2022-08-20T20:22:20.168Z,58.00
2022-08-20T20:24:57.896Z,58.13
2022-08-20T20:27:27.576Z,58.28
2022-08-20T20:30:11.439Z,58.30
2022-08-20T20:32:49.105Z,59.19
2022-08-20T20:35:27.970Z,59.18
2022-08-20T20:38:02.752Z,59.68
2022-08-20T20:40:43.740Z,59.83
2022-08-20T20:43:23.398Z,59.49
2022-08-20T20:45:59.682Z,59.91
2022-08-20T20:48:32.896Z,59.74
2022-08-20T20:51:12.134Z,60.60
2022-08-20T20:53:49.488Z,60.45
2022-08-20T20:56:36.883Z,61.14
2022-08-20T20:59:06.889Z,60.60
2022-08-20T21:01:48.525Z,61.19
2022-08-20T21:04:22.067Z,61.67
2022-08-20T21:06:49.793Z,61.38
2022-08-20T21:09:16.742Z,61.51
2022-08-20T21:11:43.321Z,61.49
2022-08-20T21:14:10.488Z,62.12
2022-08-20T21:16:37.282Z,61.95
2022-08-20T21:19:08.613Z,62.38
2022-08-20T21:21:37.290Z,62.59
2022-08-20T21:24:05.311Z,62.80
2022-08-20T21:26:32.436Z,62.79
2022-08-20T21:28:59.482Z,62.71
2022-08-20T21:31:33.625Z,62.92
2022-08-20T21:34:00.584Z,62.90
2022-08-20T21:36:27.631Z,63.34
2022-08-20T21:38:54.168Z,63.61
2022-08-20T21:41:29.430Z,63.27
2022-08-20T21:43:57.532Z,63.51
2022-08-20T21:46:25.255Z,64.28
2022-08-20T21:48:51.858Z,64.11
2022-08-20T21:51:18.519Z,64.16
2022-08-20T21:53:45.126Z,64.18
2022-08-20T21:56:11.799Z,64.79
2022-08-20T21:58:39.654Z,64.42
2022-08-20T22:01:07.089Z,65.05
2022-08-20T22:03:38.860Z,65.16
2022-08-20T22:06:10.309Z,65.02
2022-08-20T22:08:37.005Z,64.93
2022-08-20T22:11:04.877Z,64.99
2022-08-20T22:13:33.019Z,65.43
2022-08-20T22:16:02.007Z,65.65
2022-08-20T22:18:29.066Z,65.41
2022-08-20T22:20:56.553Z,65.37
2022-08-20T22:23:23.957Z,65.57
2022-08-20T22:25:51.243Z,65.85
2022-08-20T22:28:18.845Z,66.22
2022-08-20T22:30:45.790Z,66.58
2022-08-20T22:33:16.577Z,66.64
2022-08-20T22:35:48.558Z,66.64
2022-08-20T22:38:16.329Z,66.95
2022-08-20T22:40:43.867Z,66.82
2022-08-20T22:43:12.059Z,66.93
2022-08-20T22:45:40.621Z,66.98
2022-08-20T22:48:08.457Z,67.13
2022-08-20T22:50:37.549Z,67.51
2022-08-20T22:53:04.658Z,67.59
2022-08-20T22:55:31.204Z,67.36
2022-08-20T22:57:58.113Z,67.35
2022-08-20T23:00:24.896Z,67.89
2022-08-20T23:02:55.350Z,67.59
2022-08-20T23:05:25.119Z,67.69
2022-08-20T23:07:54.291Z,67.90
2022-08-20T23:10:22.313Z,67.92
2022-08-20T23:12:49.124Z,68.22
2022-08-20T23:15:16.006Z,68.39
2022-08-20T23:17:43.042Z,68.26
2022-08-20T23:20:14.042Z,68.65
2022-08-20T23:22:40.596Z,68.11
2022-08-20T23:25:09.011Z,68.25
2022-08-20T23:27:42.746Z,68.78
2022-08-20T23:30:09.856Z,68.28
2022-08-20T23:32:36.387Z,68.78
2022-08-20T23:35:03.844Z,68.87
2022-08-20T23:37:31.474Z,69.20
2022-08-20T23:39:58.221Z,69.58
2022-08-20T23:42:24.951Z,68.58
2022-08-20T23:44:51.531Z,69.67
2022-08-20T23:47:20.900Z,69.44
2022-08-20T23:49:47.674Z,69.50
2022-08-20T23:52:14.429Z,69.66
2022-08-20T23:54:41.110Z,69.41
2022-08-20T23:57:08.157Z,69.51
2022-08-20T23:59:35.858Z,69.88
